Arvada, CO (80002)

12:33 PM MDT on August 29, 2016 (GMT -0600)
Hoyt Ct | | Change Station

Elev 5512 ft 39.82 °N, 105.10 °W | Updated 6 minutes ago

Mostly Cloudy
Mostly Cloudy
91.4 °F
Feels Like 88 °F
N
3.7
Wind Variable Wind from North

Today
High -- | Low -- °F
--% Chance of Precip.
Yesterday
High -- | Low -- °F
Precip. -- in
Pressure 30.34 in
Visibility 30.0 miles
Clouds Scattered Clouds 10000 ft
Mostly Cloudy 15000 ft
Mostly Cloudy 22000 ft
Heat Index 88 °F
Dew Point 48 °F
Humidity 23%
Rainfall 0.00 in
Snow Depth Not available.
6:26 AM 7:35 PM
Waning Crescent, 7% visible
METAR KBJC 291747Z 32005KT 30SM SCT100 BKN150 BKN220 25/07 A3034
Pressure 30.34 in
Visibility 30.0 miles
Clouds Scattered Clouds 10000 ft
Mostly Cloudy 15000 ft
Mostly Cloudy 22000 ft
Heat Index 88 °F
Dew Point 48 °F
Humidity 23%
Rainfall 0.00 in
Snow Depth Not available.
6:26 AM 7:35 PM
Waning Crescent, 7% visible
METAR KBJC 291747Z 32005KT 30SM SCT100 BKN150 BKN220 25/07 A3034

10-Day Weather Forecast

Almanac

Astronomy

Aug. 29, 2016 Rise Set
Actual Time
Civil Twilight
Nautical Twilight
Astronomical Twilight
Moon
Length of Visible Light
Length of Day
Tomorrow will be .
, % of the Moon is Illuminated

Today's Extremes

State Highs State Lows

Community

WunderPhotos

Upload Photos

1,935,685 photos uploaded!

WunderBlog® & News

Nearby

Air Quality

  Air Quality AQ Index Pollutant
Not available.

Snow Depth

Station Depth Elevation

Earthquake Activity

City Distance Mag. Time & Date
Minimum magnitude displayed is 2.5.

Coastal Water Temperatures

Place Temperature

Stations

Nearby Weather Stations

Station Location Temp. Windchill Dew Point Humidity Wind Precip. Elev Updated Type
                   

Watches & Warnings

There are currently no watches in effect.